MSC Antalya — VRME8 — position and weather

sailwx.info

Track history (hours):
 
Tides and Currents Weather Stations Pressure Air Temp Water Temp Dewpoint Dewpoint Depression Visibility Wind Speed Wind Dir Waves Ship Positions

MSC Antalya

Last reported at 2018-Jun-24 10:59 UTC. Time now 2018-Jun-24 11:07 UTC.
Position N 09°21' W 079°54'.

Length 300 m; draft 10.5 m.

Type: Ship (hazmat cat D). MMSI: 477220400.

Date/timePositionNaut miles runAvg speedWind from/ knotsBaromVisibWave heightAir tempDewpointWater temp
2018-Jun-24 10:59N 09°21' W 079°54'0 0.0
2018-Jun-24 10:29N 09°21' W 079°54'0 0.0
2018-Jun-24 09:59N 09°21' W 079°54'0 0.0
2018-Jun-24 09:29N 09°21' W 079°54'0 0.2
2018-Jun-24 09:01N 09°21' W 079°54'1 2.0
2018-Jun-24 08:31N 09°22' W 079°55'4 7.6
2018-Jun-24 08:01N 09°26' W 079°55'4 7.0
2018-Jun-24 07:30N 09°27' W 079°58'2 4.7
2018-Jun-24 07:00N 09°27' W 079°56'0 0.2
2018-Jun-24 06:28N 09°27' W 079°56'0 0.0
2018-Jun-24 05:58N 09°27' W 079°56'0 0.0
2018-Jun-24 05:28N 09°27' W 079°56'0 0.0
2018-Jun-24 04:58N 09°27' W 079°56'0 0.0
2018-Jun-24 04:28N 09°27' W 079°56'0 0.0
2018-Jun-24 03:58N 09°27' W 079°56'0 0.0
2018-Jun-24 03:28N 09°27' W 079°56'0 0.0
2018-Jun-24 02:58N 09°27' W 079°56'0 0.0
2018-Jun-24 02:28N 09°27' W 079°56'0 0.0
2018-Jun-24 01:58N 09°27' W 079°56'0 0.0
2018-Jun-24 01:25N 09°27' W 079°56'0 0.0
2018-Jun-24 00:58N 09°27' W 079°56'0 0.0
2018-Jun-24 00:28N 09°27' W 079°56'0 0.0
2018-Jun-23 23:58N 09°27' W 079°56'0 0.0
2018-Jun-23 23:28N 09°27' W 079°56'0 0.0
2018-Jun-23 22:58N 09°27' W 079°56'0 0.0
2018-Jun-23 22:28N 09°27' W 079°56'0 0.1
2018-Jun-23 21:58N 09°27' W 079°56'0 0.3
2018-Jun-23 21:28N 09°27' W 079°56'0 0.1
2018-Jun-23 20:58N 09°27' W 079°56'0 0.0
2018-Jun-23 20:19N 09°27' W 079°56'0 0.0
2018-Jun-23 19:55N 09°27' W 079°56'0 0.0
2018-Jun-23 19:25N 09°27' W 079°56'0 0.0
2018-Jun-23 18:58N 09°27' W 079°56'0 0.0
2018-Jun-23 18:28N 09°27' W 079°56'0 0.0
2018-Jun-23 17:58N 09°27' W 079°56'0 0.0
2018-Jun-23 17:25N 09°27' W 079°56'0 0.0
2018-Jun-23 16:55N 09°27' W 079°56'0 0.0
2018-Jun-23 16:28N 09°27' W 079°56'0 0.0
2018-Jun-23 15:58N 09°27' W 079°56'0 0.0
2018-Jun-23 15:28N 09°27' W 079°56'0 0.0
2018-Jun-23 14:58N 09°27' W 079°56'0 0.0
2018-Jun-23 14:28N 09°27' W 079°56'0 0.0
2018-Jun-23 13:58N 09°27' W 079°56'0 0.1
2018-Jun-23 13:28N 09°27' W 079°56'0 0.0
2018-Jun-23 12:58N 09°27' W 079°56'0 0.0
2018-Jun-23 12:28N 09°27' W 079°56'0 0.0
2018-Jun-23 11:58N 09°27' W 079°56'0 0.0
2018-Jun-23 11:28N 09°27' W 079°56'0 0.0
2018-Jun-23 10:58N 09°27' W 079°56'0 0.0
2018-Jun-23 10:28N 09°27' W 079°56'0 0.0
2018-Jun-23 09:58N 09°27' W 079°56'0 0.1
2018-Jun-23 09:28N 09°27' W 079°56'0 0.0
2018-Jun-23 08:58N 09°27' W 079°56'0 0.1
2018-Jun-23 08:28N 09°27' W 079°56'0 0.0
2018-Jun-23 07:55N 09°27' W 079°56'0 0.1
2018-Jun-23 07:28N 09°27' W 079°56'0 0.2
2018-Jun-23 06:58N 09°27' W 079°56'0 0.0
2018-Jun-23 06:28N 09°27' W 079°56'0 0.0
2018-Jun-23 05:58N 09°27' W 079°56'0 0.0
2018-Jun-23 05:28N 09°27' W 079°56'0 0.0
2018-Jun-23 04:58N 09°27' W 079°56'0 0.0
2018-Jun-23 04:28N 09°27' W 079°56'0 0.0
2018-Jun-23 03:58N 09°27' W 079°56'0 0.1
2018-Jun-23 03:28N 09°27' W 079°56'0 0.0
2018-Jun-23 02:58N 09°27' W 079°56'0 0.0
2018-Jun-23 02:28N 09°27' W 079°56'0 0.0
2018-Jun-23 01:58N 09°27' W 079°56'0 0.0
2018-Jun-23 01:28N 09°27' W 079°56'0 0.0
2018-Jun-23 00:58N 09°27' W 079°56'0 0.0
2018-Jun-23 00:28N 09°27' W 079°56'1 1.9
2018-Jun-23 00:00N 09°27' W 079°55'511.0
2018-Jun-22 23:30N 09°21' W 079°55'4 8.4
2018-Jun-22 23:00N 09°17' W 079°55'0 1.0
2018-Jun-22 22:30N 09°17' W 079°55'0 0.5
2018-Jun-22 22:00N 09°16' W 079°55'0 0.2
2018-Jun-22 21:30N 09°16' W 079°55'0 0.3
2018-Jun-22 21:00N 09°16' W 079°55'0 0.7
2018-Jun-22 20:30N 09°16' W 079°55'1 1.0
2018-Jun-22 20:00N 09°15' W 079°55'0 0.2
2018-Jun-22 19:27N 09°15' W 079°55'0 0.8
2018-Jun-22 18:59N 09°15' W 079°55'2 2.5
2018-Jun-22 18:21N 09°14' W 079°55'  
Track history (hours):
 
Tides and Currents Weather Stations Pressure Air Temp Water Temp Dewpoint Dewpoint Depression Visibility Wind Speed Wind Dir Waves Ship Positions

MSC Antalya

Last reported at 2018-Jun-24 10:59 UTC. Time now 2018-Jun-24 11:07 UTC.
Position N 09°21' W 079°54'.

Length 300 m; draft 10.5 m.

Type: Ship (hazmat cat D). MMSI: 477220400.

Date/timePositionNaut miles runAvg speedWind from/ knotsBaromVisibWave heightAir tempDewpointWater temp
2018-Jun-24 10:59N 09°21' W 079°54'0 0.0
2018-Jun-24 10:29N 09°21' W 079°54'0 0.0
2018-Jun-24 09:59N 09°21' W 079°54'0 0.0
2018-Jun-24 09:29N 09°21' W 079°54'0 0.2
2018-Jun-24 09:01N 09°21' W 079°54'1 2.0
2018-Jun-24 08:31N 09°22' W 079°55'4 7.6
2018-Jun-24 08:01N 09°26' W 079°55'4 7.0
2018-Jun-24 07:30N 09°27' W 079°58'2 4.7
2018-Jun-24 07:00N 09°27' W 079°56'0 0.2
2018-Jun-24 06:28N 09°27' W 079°56'0 0.0
2018-Jun-24 05:58N 09°27' W 079°56'0 0.0
2018-Jun-24 05:28N 09°27' W 079°56'0 0.0
2018-Jun-24 04:58N 09°27' W 079°56'0 0.0
2018-Jun-24 04:28N 09°27' W 079°56'0 0.0
2018-Jun-24 03:58N 09°27' W 079°56'0 0.0
2018-Jun-24 03:28N 09°27' W 079°56'0 0.0
2018-Jun-24 02:58N 09°27' W 079°56'0 0.0
2018-Jun-24 02:28N 09°27' W 079°56'0 0.0
2018-Jun-24 01:58N 09°27' W 079°56'0 0.0
2018-Jun-24 01:25N 09°27' W 079°56'0 0.0
2018-Jun-24 00:58N 09°27' W 079°56'0 0.0
2018-Jun-24 00:28N 09°27' W 079°56'0 0.0
2018-Jun-23 23:58N 09°27' W 079°56'0 0.0
2018-Jun-23 23:28N 09°27' W 079°56'0 0.0
2018-Jun-23 22:58N 09°27' W 079°56'0 0.0
2018-Jun-23 22:28N 09°27' W 079°56'0 0.1
2018-Jun-23 21:58N 09°27' W 079°56'0 0.3
2018-Jun-23 21:28N 09°27' W 079°56'0 0.1
2018-Jun-23 20:58N 09°27' W 079°56'0 0.0
2018-Jun-23 20:19N 09°27' W 079°56'0 0.0
2018-Jun-23 19:55N 09°27' W 079°56'0 0.0
2018-Jun-23 19:25N 09°27' W 079°56'0 0.0
2018-Jun-23 18:58N 09°27' W 079°56'0 0.0
2018-Jun-23 18:28N 09°27' W 079°56'0 0.0
2018-Jun-23 17:58N 09°27' W 079°56'0 0.0
2018-Jun-23 17:25N 09°27' W 079°56'0 0.0
2018-Jun-23 16:55N 09°27' W 079°56'0 0.0
2018-Jun-23 16:28N 09°27' W 079°56'0 0.0
2018-Jun-23 15:58N 09°27' W 079°56'0 0.0
2018-Jun-23 15:28N 09°27' W 079°56'0 0.0
2018-Jun-23 14:58N 09°27' W 079°56'0 0.0
2018-Jun-23 14:28N 09°27' W 079°56'0 0.0
2018-Jun-23 13:58N 09°27' W 079°56'0 0.1
2018-Jun-23 13:28N 09°27' W 079°56'0 0.0
2018-Jun-23 12:58N 09°27' W 079°56'0 0.0
2018-Jun-23 12:28N 09°27' W 079°56'0 0.0
2018-Jun-23 11:58N 09°27' W 079°56'0 0.0
2018-Jun-23 11:28N 09°27' W 079°56'0 0.0
2018-Jun-23 10:58N 09°27' W 079°56'0 0.0
2018-Jun-23 10:28N 09°27' W 079°56'0 0.0
2018-Jun-23 09:58N 09°27' W 079°56'0 0.1
2018-Jun-23 09:28N 09°27' W 079°56'0 0.0
2018-Jun-23 08:58N 09°27' W 079°56'0 0.1
2018-Jun-23 08:28N 09°27' W 079°56'0 0.0
2018-Jun-23 07:55N 09°27' W 079°56'0 0.1
2018-Jun-23 07:28N 09°27' W 079°56'0 0.2
2018-Jun-23 06:58N 09°27' W 079°56'0 0.0
2018-Jun-23 06:28N 09°27' W 079°56'0 0.0
2018-Jun-23 05:58N 09°27' W 079°56'0 0.0
2018-Jun-23 05:28N 09°27' W 079°56'0 0.0
2018-Jun-23 04:58N 09°27' W 079°56'0 0.0
2018-Jun-23 04:28N 09°27' W 079°56'0 0.0
2018-Jun-23 03:58N 09°27' W 079°56'0 0.1
2018-Jun-23 03:28N 09°27' W 079°56'0 0.0
2018-Jun-23 02:58N 09°27' W 079°56'0 0.0
2018-Jun-23 02:28N 09°27' W 079°56'0 0.0
2018-Jun-23 01:58N 09°27' W 079°56'0 0.0
2018-Jun-23 01:28N 09°27' W 079°56'0 0.0
2018-Jun-23 00:58N 09°27' W 079°56'0 0.0
2018-Jun-23 00:28N 09°27' W 079°56'1 1.9
2018-Jun-23 00:00N 09°27' W 079°55'511.0
2018-Jun-22 23:30N 09°21' W 079°55'4 8.4
2018-Jun-22 23:00N 09°17' W 079°55'0 1.0
2018-Jun-22 22:30N 09°17' W 079°55'0 0.5
2018-Jun-22 22:00N 09°16' W 079°55'0 0.2
2018-Jun-22 21:30N 09°16' W 079°55'0 0.3
2018-Jun-22 21:00N 09°16' W 079°55'0 0.7
2018-Jun-22 20:30N 09°16' W 079°55'1 1.0
2018-Jun-22 20:00N 09°15' W 079°55'0 0.2
2018-Jun-22 19:27N 09°15' W 079°55'0 0.8
2018-Jun-22 18:59N 09°15' W 079°55'2 2.5
2018-Jun-22 18:21N 09°14' W 079°55'  

Dump ship's entire track history